createdAt,value
2023-02-26T00:01:36.861Z,0.86
2023-02-26T00:04:05.421Z,0.85
2023-02-26T00:06:37.399Z,0.74
2023-02-26T00:09:05.512Z,0.79
2023-02-26T00:11:33.190Z,0.77
2023-02-26T00:14:02.751Z,0.74
2023-02-26T00:16:35.733Z,0.88
2023-02-26T00:19:05.699Z,0.88
2023-02-26T00:21:34.213Z,0.85
2023-02-26T00:24:02.186Z,0.84
2023-02-26T00:26:31.367Z,0.89
2023-02-26T00:28:59.009Z,0.83
2023-02-26T00:31:26.058Z,0.82
2023-02-26T00:33:54.868Z,0.66
2023-02-26T00:36:33.792Z,0.47
2023-02-26T00:39:34.325Z,0.43
2023-02-26T00:42:01.383Z,0.29
2023-02-26T00:44:28.427Z,0.32
2023-02-26T00:47:20.839Z,0.25
2023-02-26T00:50:26.245Z,0.18
2023-02-26T00:53:19.716Z,0.24
2023-02-26T00:55:46.390Z,0.30
2023-02-26T00:58:13.097Z,0.34
2023-02-26T01:00:39.772Z,0.36
2023-02-26T01:03:06.956Z,0.41
2023-02-26T01:05:33.939Z,0.45
2023-02-26T01:08:18.672Z,0.36
2023-02-26T01:10:46.216Z,0.39
2023-02-26T01:13:13.183Z,0.22
2023-02-26T01:15:46.779Z,0.35
2023-02-26T01:18:24.131Z,0.50
2023-02-26T01:21:02.691Z,0.62
2023-02-26T01:23:35.290Z,0.56
2023-02-26T01:26:14.681Z,0.72
2023-02-26T01:28:41.739Z,0.76
2023-02-26T01:31:20.747Z,0.70
2023-02-26T01:33:55.884Z,0.54
2023-02-26T01:36:31.465Z,0.52
2023-02-26T01:39:06.343Z,0.42
2023-02-26T01:41:55.038Z,0.23
2023-02-26T01:44:42.882Z,0.24
2023-02-26T01:48:20.043Z,0.37
2023-02-26T01:50:46.813Z,0.24
2023-02-26T01:53:24.061Z,0.13
2023-02-26T01:55:56.603Z,-0.07
2023-02-26T01:58:25.236Z,-0.13
2023-02-26T02:00:52.271Z,-0.23
2023-02-26T02:03:20.863Z,-0.30
2023-02-26T02:06:00.689Z,-0.34
2023-02-26T02:08:27.472Z,-0.35
2023-02-26T02:10:54.486Z,-0.45
2023-02-26T02:13:54.792Z,-0.51
2023-02-26T02:16:50.210Z,-0.60
2023-02-26T02:20:15.795Z,-0.56
2023-02-26T02:23:12.098Z,-0.55
2023-02-26T02:26:28.570Z,-0.59
2023-02-26T02:29:36.666Z,-0.62
2023-02-26T02:32:18.681Z,-0.62
2023-02-26T02:35:15.043Z,-0.67
2023-02-26T02:37:55.951Z,-0.68
2023-02-26T02:40:27.336Z,-0.70
2023-02-26T02:43:04.445Z,-0.75
2023-02-26T02:46:00.477Z,-0.74
2023-02-26T02:48:32.338Z,-0.70
2023-02-26T02:51:07.516Z,-0.65
2023-02-26T02:53:45.421Z,-0.82
2023-02-26T02:56:29.549Z,-0.70
2023-02-26T02:59:11.070Z,-0.63
2023-02-26T03:01:39.364Z,-0.64
2023-02-26T03:04:10.187Z,-0.80
2023-02-26T03:06:37.635Z,-0.87
2023-02-26T03:09:06.289Z,-0.78
2023-02-26T03:11:34.500Z,-0.67
2023-02-26T03:14:02.242Z,-0.54
2023-02-26T03:16:53.520Z,-0.56
2023-02-26T03:19:44.616Z,-0.63
2023-02-26T03:22:53.227Z,-0.68
2023-02-26T03:25:42.758Z,-0.65
2023-02-26T03:28:35.102Z,-0.64
2023-02-26T03:31:12.180Z,-0.68
2023-02-26T03:33:59.996Z,-0.66
2023-02-26T03:36:43.416Z,-0.70
2023-02-26T03:39:18.749Z,-0.44
2023-02-26T03:42:11.279Z,-0.46
2023-02-26T03:44:44.285Z,-0.40
2023-02-26T03:47:14.300Z,-0.52
2023-02-26T03:49:47.064Z,-0.58
2023-02-26T03:52:14.810Z,-0.51
2023-02-26T03:54:46.833Z,-0.44
2023-02-26T03:57:13.900Z,-0.43
2023-02-26T03:59:40.531Z,-0.49
2023-02-26T04:02:18.525Z,-0.66
2023-02-26T04:05:05.976Z,-0.69
2023-02-26T04:07:32.980Z,-0.62
2023-02-26T04:09:59.810Z,-0.61
2023-02-26T04:12:28.903Z,-0.60
2023-02-26T04:14:56.897Z,-0.60
2023-02-26T04:17:23.577Z,-0.65
2023-02-26T04:19:50.314Z,-0.69
2023-02-26T04:22:17.078Z,-0.76
2023-02-26T04:24:43.734Z,-0.69
2023-02-26T04:27:10.383Z,-0.78
2023-02-26T04:29:37.680Z,-0.70
2023-02-26T04:32:04.446Z,-0.80
2023-02-26T04:34:31.438Z,-0.85
2023-02-26T04:36:58.212Z,-0.85
2023-02-26T04:39:24.855Z,-0.79
2023-02-26T04:41:51.469Z,-0.81
2023-02-26T04:44:18.179Z,-0.87
2023-02-26T04:46:44.874Z,-0.87
2023-02-26T04:49:11.517Z,-0.89
2023-02-26T04:51:38.248Z,-0.93
2023-02-26T04:54:05.009Z,-1.06
2023-02-26T04:56:32.602Z,-0.95
2023-02-26T04:58:59.293Z,-0.90
2023-02-26T05:01:25.971Z,-0.91
2023-02-26T05:03:52.738Z,-0.91
2023-02-26T05:06:19.427Z,-0.81
2023-02-26T05:08:46.083Z,-0.77
2023-02-26T05:11:13.279Z,-0.82
2023-02-26T05:13:40.291Z,-0.81
2023-02-26T05:16:07.611Z,-0.82
2023-02-26T05:18:34.316Z,-0.93
2023-02-26T05:21:01.014Z,-1.00
2023-02-26T05:23:27.634Z,-1.03
2023-02-26T05:25:58.384Z,-1.01
2023-02-26T05:28:26.307Z,-1.06
2023-02-26T05:30:53.568Z,-1.10
2023-02-26T05:33:20.303Z,-1.06
2023-02-26T05:35:48.192Z,-1.15
2023-02-26T05:38:15.521Z,-1.25
2023-02-26T05:40:42.165Z,-1.21
2023-02-26T05:43:09.097Z,-1.19
2023-02-26T05:45:35.816Z,-1.09
2023-02-26T05:48:02.593Z,-1.19
2023-02-26T05:50:30.578Z,-1.32
2023-02-26T05:52:57.565Z,-1.31
2023-02-26T05:55:24.560Z,-1.19
2023-02-26T05:57:51.259Z,-1.31
2023-02-26T06:00:18.502Z,-1.28
2023-02-26T06:02:45.163Z,-1.19
2023-02-26T06:05:11.882Z,-1.28
2023-02-26T06:07:38.667Z,-1.17
2023-02-26T06:10:06.276Z,-1.10
2023-02-26T06:12:32.967Z,-1.06
2023-02-26T06:14:59.648Z,-0.95
2023-02-26T06:17:27.104Z,-0.78
2023-02-26T06:19:53.941Z,-0.80
2023-02-26T06:22:20.561Z,-0.78
2023-02-26T06:24:47.220Z,-0.83
2023-02-26T06:27:13.971Z,-0.90
2023-02-26T06:29:40.661Z,-0.89
2023-02-26T06:32:07.552Z,-0.73
2023-02-26T06:34:34.517Z,-0.59
2023-02-26T06:37:01.165Z,-0.46
2023-02-26T06:39:27.803Z,-0.29
2023-02-26T06:41:54.487Z,-0.34
2023-02-26T06:44:21.092Z,-0.26
2023-02-26T06:46:47.809Z,-0.20
2023-02-26T06:49:14.573Z,-0.13
2023-02-26T06:51:41.252Z,-0.17
2023-02-26T06:54:07.879Z,-0.07
2023-02-26T06:56:34.818Z,0.17
2023-02-26T06:59:01.703Z,0.16
2023-02-26T07:01:28.454Z,0.14
2023-02-26T07:03:55.154Z,0.16
2023-02-26T07:06:27.818Z,0.16
2023-02-26T07:08:55.524Z,0.27
2023-02-26T07:11:22.248Z,0.33
2023-02-26T07:13:48.941Z,0.40
2023-02-26T07:16:15.546Z,0.42
2023-02-26T07:18:42.616Z,0.53
2023-02-26T07:21:09.479Z,0.67
2023-02-26T07:23:36.180Z,0.70
2023-02-26T07:26:03.147Z,0.82
2023-02-26T07:28:30.015Z,0.89
2023-02-26T07:30:57.175Z,0.74
2023-02-26T07:33:25.073Z,0.79
2023-02-26T07:35:51.719Z,0.86
2023-02-26T07:38:19.646Z,0.80
2023-02-26T07:40:47.161Z,0.93
2023-02-26T07:43:13.795Z,0.95
2023-02-26T07:45:40.560Z,0.71
2023-02-26T07:48:07.407Z,0.68
2023-02-26T07:50:34.085Z,0.41
2023-02-26T07:53:00.769Z,0.44
2023-02-26T07:55:27.823Z,0.37
2023-02-26T07:57:54.674Z,0.47
2023-02-26T08:00:21.730Z,0.41
2023-02-26T08:02:48.424Z,0.37
2023-02-26T08:05:15.117Z,0.54
2023-02-26T08:07:41.828Z,0.58
2023-02-26T08:10:09.814Z,0.84
2023-02-26T08:12:36.867Z,0.88
2023-02-26T08:15:04.516Z,0.81
2023-02-26T08:17:52.566Z,0.46
2023-02-26T08:20:19.791Z,0.30
2023-02-26T08:22:46.436Z,0.35
2023-02-26T08:25:13.235Z,0.28
2023-02-26T08:27:40.059Z,0.30
2023-02-26T08:30:07.854Z,0.21
2023-02-26T08:32:34.573Z,0.08
2023-02-26T08:35:01.263Z,0.29
2023-02-26T08:37:27.900Z,0.16
2023-02-26T08:39:54.636Z,0.22
2023-02-26T08:42:21.286Z,0.13
2023-02-26T08:44:48.106Z,-0.30
2023-02-26T08:47:19.146Z,-0.36
2023-02-26T08:49:51.296Z,-0.50
2023-02-26T08:52:17.999Z,-0.40
2023-02-26T08:54:44.637Z,-0.36
2023-02-26T08:57:11.260Z,-0.37
2023-02-26T08:59:37.896Z,-0.49
2023-02-26T09:02:04.733Z,-0.47
2023-02-26T09:04:31.413Z,-0.18
2023-02-26T09:06:58.079Z,-0.23
2023-02-26T09:09:24.648Z,-0.38
2023-02-26T09:11:51.307Z,-0.28
2023-02-26T09:14:17.925Z,-0.23
2023-02-26T09:16:44.633Z,-0.43
2023-02-26T09:19:11.397Z,-0.41
2023-02-26T09:21:38.100Z,-0.41
2023-02-26T09:24:04.960Z,-0.22
2023-02-26T09:26:31.561Z,-0.25
2023-02-26T09:28:58.244Z,-0.24
2023-02-26T09:31:24.927Z,-0.23
2023-02-26T09:33:51.566Z,-0.11
2023-02-26T09:36:18.152Z,-0.14
2023-02-26T09:38:46.004Z,-0.17
2023-02-26T09:41:22.427Z,-0.21
2023-02-26T09:44:16.823Z,-0.34
2023-02-26T09:47:00.616Z,-0.30
2023-02-26T09:49:34.973Z,-0.04
2023-02-26T09:52:34.421Z,-0.03
2023-02-26T09:55:09.670Z,-0.13
2023-02-26T09:57:42.587Z,-0.38
2023-02-26T10:00:24.757Z,-0.27
2023-02-26T10:02:59.691Z,-0.12
2023-02-26T10:05:59.715Z,-0.02
2023-02-26T10:08:34.155Z,-0.02
2023-02-26T10:11:11.942Z,-0.13
2023-02-26T10:13:57.588Z,-0.14
2023-02-26T10:16:29.283Z,-0.28
2023-02-26T10:19:03.788Z,-0.37
2023-02-26T10:21:39.573Z,-0.37
2023-02-26T10:24:39.078Z,0.07
2023-02-26T10:27:12.033Z,0.23
2023-02-26T10:29:53.945Z,0.48
2023-02-26T10:32:46.641Z,0.58
2023-02-26T10:35:19.077Z,0.59
2023-02-26T10:37:59.307Z,0.68
2023-02-26T10:40:50.434Z,0.46
2023-02-26T10:43:27.317Z,0.44
2023-02-26T10:46:12.984Z,0.73
2023-02-26T10:49:08.493Z,0.97
2023-02-26T10:51:39.850Z,1.10
2023-02-26T10:54:42.000Z,1.05
2023-02-26T10:57:19.078Z,1.19
2023-02-26T10:59:45.701Z,1.31
2023-02-26T11:02:33.825Z,1.49
2023-02-26T11:05:07.559Z,1.47
2023-02-26T11:07:37.817Z,1.41
2023-02-26T11:10:05.263Z,1.43
2023-02-26T11:12:32.569Z,1.50
2023-02-26T11:15:01.098Z,1.34
2023-02-26T11:17:32.448Z,1.13
2023-02-26T11:20:02.490Z,1.36
2023-02-26T11:22:33.372Z,1.45
2023-02-26T11:25:00.358Z,1.42
2023-02-26T11:27:31.897Z,1.47
2023-02-26T11:30:04.102Z,1.37
2023-02-26T11:32:36.552Z,1.34
2023-02-26T11:35:03.781Z,1.26
2023-02-26T11:37:35.099Z,1.35
2023-02-26T11:40:18.408Z,1.50
2023-02-26T11:42:58.210Z,1.43
2023-02-26T11:45:25.476Z,1.60
2023-02-26T11:48:05.147Z,1.73
2023-02-26T11:50:38.666Z,1.75
2023-02-26T11:53:08.343Z,1.74
2023-02-26T11:55:40.100Z,1.65
2023-02-26T11:58:19.178Z,1.49
2023-02-26T12:00:46.599Z,1.58
2023-02-26T12:03:23.039Z,1.59
2023-02-26T12:05:50.866Z,1.53
2023-02-26T12:08:24.961Z,1.49
2023-02-26T12:11:29.091Z,1.64
2023-02-26T12:14:33.084Z,1.91
2023-02-26T12:17:27.875Z,2.04
2023-02-26T12:20:21.056Z,2.40
2023-02-26T12:22:56.570Z,2.87
2023-02-26T12:25:52.416Z,3.18
2023-02-26T12:28:43.802Z,3.05
2023-02-26T12:31:40.360Z,3.12
2023-02-26T12:34:42.629Z,3.20
2023-02-26T12:37:57.312Z,3.09
2023-02-26T12:41:00.758Z,2.84
2023-02-26T12:43:40.478Z,2.83
2023-02-26T12:46:35.878Z,2.70
2023-02-26T12:49:53.219Z,2.55
2023-02-26T12:52:50.187Z,2.41
2023-02-26T12:55:55.368Z,2.33
2023-02-26T12:59:01.600Z,2.39
2023-02-26T13:02:01.350Z,2.29
2023-02-26T13:05:23.939Z,1.89
2023-02-26T13:08:35.983Z,1.89
2023-02-26T13:11:29.358Z,1.62
2023-02-26T13:14:33.563Z,1.46
2023-02-26T13:17:07.462Z,1.34
2023-02-26T13:19:43.263Z,1.15
2023-02-26T13:22:25.037Z,0.74
2023-02-26T13:25:02.122Z,0.68
2023-02-26T13:27:34.025Z,0.67
2023-02-26T13:30:26.494Z,0.82
2023-02-26T13:32:59.893Z,1.06
2023-02-26T13:35:33.978Z,1.18
2023-02-26T13:38:05.413Z,1.31
2023-02-26T13:40:56.938Z,1.24
2023-02-26T13:43:38.328Z,1.45
2023-02-26T13:46:38.604Z,1.75
2023-02-26T13:49:28.805Z,1.99
2023-02-26T13:51:56.848Z,1.83
2023-02-26T13:54:45.820Z,1.83
2023-02-26T13:57:36.837Z,1.98
2023-02-26T14:00:31.926Z,2.08
2023-02-26T14:03:29.496Z,1.98
2023-02-26T14:06:15.905Z,1.89
2023-02-26T14:08:46.140Z,1.92
2023-02-26T14:12:02.047Z,1.98
2023-02-26T14:14:31.136Z,2.00
2023-02-26T14:17:37.067Z,1.83
2023-02-26T14:20:15.733Z,1.86
2023-02-26T14:22:46.777Z,1.86
2023-02-26T14:25:37.570Z,1.88
2023-02-26T14:28:27.437Z,1.77
2023-02-26T14:31:07.783Z,1.80
2023-02-26T14:34:02.773Z,1.79
2023-02-26T14:37:02.561Z,1.84
2023-02-26T14:39:44.057Z,1.97
2023-02-26T14:42:26.395Z,1.78
2023-02-26T14:45:06.333Z,1.77
2023-02-26T14:47:33.004Z,1.84
2023-02-26T14:50:00.753Z,1.84
2023-02-26T14:52:59.432Z,1.68
2023-02-26T14:55:52.484Z,1.61
2023-02-26T14:58:43.968Z,1.64
2023-02-26T15:01:48.892Z,1.60
2023-02-26T15:04:31.300Z,1.54
2023-02-26T15:06:57.803Z,1.59
2023-02-26T15:09:58.459Z,1.57
2023-02-26T15:13:03.973Z,1.61
2023-02-26T15:16:07.877Z,1.72
2023-02-26T15:18:43.515Z,1.79
2023-02-26T15:21:18.769Z,1.80
2023-02-26T15:23:52.060Z,1.72
2023-02-26T15:26:26.618Z,1.79
2023-02-26T15:28:54.749Z,1.78
2023-02-26T15:31:30.701Z,1.87
2023-02-26T15:33:58.573Z,1.85
2023-02-26T15:36:27.343Z,1.80
2023-02-26T15:38:59.902Z,1.83
2023-02-26T15:41:28.233Z,1.81
2023-02-26T15:44:07.346Z,1.75
2023-02-26T15:46:37.573Z,1.73
2023-02-26T15:49:12.214Z,1.46
2023-02-26T15:51:40.260Z,1.47
2023-02-26T15:54:07.065Z,1.41
2023-02-26T15:56:39.376Z,1.38
2023-02-26T15:59:17.571Z,1.42
2023-02-26T16:01:44.262Z,1.37
2023-02-26T16:04:19.584Z,1.33
2023-02-26T16:06:55.533Z,1.31
2023-02-26T16:09:34.583Z,1.22
2023-02-26T16:12:13.137Z,1.15
2023-02-26T16:14:43.897Z,1.25
2023-02-26T16:17:15.051Z,1.27
2023-02-26T16:19:45.846Z,1.22
2023-02-26T16:22:25.774Z,1.25
2023-02-26T16:24:59.049Z,1.27
2023-02-26T16:27:30.987Z,1.18
2023-02-26T16:30:00.622Z,1.17
2023-02-26T16:32:31.978Z,1.15
2023-02-26T16:35:07.985Z,1.11
2023-02-26T16:37:38.816Z,1.17
2023-02-26T16:40:20.126Z,1.15
2023-02-26T16:43:21.989Z,1.16
2023-02-26T16:45:51.161Z,1.12
2023-02-26T16:48:36.202Z,1.00
2023-02-26T16:51:16.476Z,0.96
2023-02-26T16:54:07.644Z,0.94
2023-02-26T16:56:39.636Z,0.93
2023-02-26T16:59:17.322Z,0.97
2023-02-26T17:02:01.727Z,0.91
2023-02-26T17:04:32.227Z,0.88
2023-02-26T17:06:59.133Z,0.82
2023-02-26T17:09:49.238Z,0.92
2023-02-26T17:12:20.422Z,0.93
2023-02-26T17:14:57.929Z,0.90
2023-02-26T17:17:25.492Z,0.82
2023-02-26T17:19:54.052Z,0.87
2023-02-26T17:22:28.892Z,0.83
2023-02-26T17:24:55.649Z,0.74
2023-02-26T17:27:30.411Z,0.72
2023-02-26T17:29:57.939Z,0.67
2023-02-26T17:32:27.097Z,0.70
2023-02-26T17:34:54.688Z,0.81
2023-02-26T17:37:22.537Z,0.79
2023-02-26T17:39:49.419Z,0.74
2023-02-26T17:42:19.485Z,0.75
2023-02-26T17:44:46.091Z,0.77
2023-02-26T17:47:16.888Z,0.79
2023-02-26T17:49:44.338Z,0.67
2023-02-26T17:52:10.942Z,0.50
2023-02-26T17:54:37.669Z,0.53
2023-02-26T17:57:05.323Z,0.60
2023-02-26T17:59:32.076Z,0.62
2023-02-26T18:01:58.864Z,0.72
2023-02-26T18:04:25.547Z,0.65
2023-02-26T18:06:52.344Z,0.52
2023-02-26T18:09:19.506Z,0.47
2023-02-26T18:11:46.114Z,0.48
2023-02-26T18:14:12.703Z,0.70
2023-02-26T18:16:42.757Z,0.68
2023-02-26T18:19:13.861Z,0.70
2023-02-26T18:21:40.515Z,0.56
2023-02-26T18:24:07.692Z,0.53
2023-02-26T18:26:34.537Z,0.50
2023-02-26T18:29:01.174Z,0.47
2023-02-26T18:31:34.549Z,0.46
2023-02-26T18:34:02.497Z,0.56
2023-02-26T18:36:37.505Z,0.59
2023-02-26T18:39:12.697Z,0.56
2023-02-26T18:41:39.575Z,0.51
2023-02-26T18:44:06.193Z,0.42
2023-02-26T18:46:34.931Z,0.42
2023-02-26T18:49:01.559Z,0.37
2023-02-26T18:51:29.841Z,0.45
2023-02-26T18:53:56.495Z,0.36
2023-02-26T18:56:23.016Z,0.39
2023-02-26T18:58:49.596Z,0.29
2023-02-26T19:01:16.371Z,0.40
2023-02-26T19:03:42.990Z,0.15
2023-02-26T19:06:09.677Z,0.04
2023-02-26T19:08:36.376Z,0.11
2023-02-26T19:11:03.026Z,0.21
2023-02-26T19:13:29.668Z,0.38
2023-02-26T19:15:56.554Z,0.44
2023-02-26T19:18:23.197Z,0.39
2023-02-26T19:20:49.841Z,0.50
2023-02-26T19:23:16.476Z,0.42
2023-02-26T19:25:43.166Z,0.53
2023-02-26T19:28:09.704Z,0.58
2023-02-26T19:30:36.608Z,0.66
2023-02-26T19:33:03.237Z,0.52
2023-02-26T19:35:30.725Z,0.60
2023-02-26T19:37:57.353Z,0.79
2023-02-26T19:40:24.711Z,0.48
2023-02-26T19:42:51.345Z,0.27
2023-02-26T19:45:18.050Z,0.12
2023-02-26T19:47:45.337Z,0.19
2023-02-26T19:50:14.123Z,0.28
2023-02-26T19:52:41.135Z,0.18
2023-02-26T19:55:08.839Z,0.21
2023-02-26T19:57:35.619Z,0.21
2023-02-26T20:00:03.298Z,0.14
2023-02-26T20:02:30.023Z,0.22
2023-02-26T20:04:56.636Z,0.20
2023-02-26T20:07:23.566Z,0.22
2023-02-26T20:09:50.332Z,0.30
2023-02-26T20:12:16.923Z,0.32
2023-02-26T20:14:43.814Z,0.32
2023-02-26T20:17:10.435Z,0.30
2023-02-26T20:19:37.125Z,0.28
2023-02-26T20:22:03.755Z,0.38
2023-02-26T20:24:32.731Z,0.43
2023-02-26T20:27:00.211Z,0.25
2023-02-26T20:29:26.836Z,0.29
2023-02-26T20:31:53.616Z,0.18
2023-02-26T20:34:20.670Z,0.11
2023-02-26T20:36:49.832Z,0.16
2023-02-26T20:39:19.029Z,0.11
2023-02-26T20:41:45.657Z,0.17
2023-02-26T20:44:12.298Z,0.23
2023-02-26T20:46:39.045Z,0.32
2023-02-26T20:49:11.369Z,0.24
2023-02-26T20:51:42.171Z,0.33
2023-02-26T20:54:12.751Z,0.42
2023-02-26T20:56:39.315Z,0.50
2023-02-26T20:59:05.921Z,0.53
2023-02-26T21:01:35.694Z,0.50
2023-02-26T21:04:07.803Z,0.51
2023-02-26T21:06:34.847Z,0.43
2023-02-26T21:09:02.597Z,0.46
2023-02-26T21:11:36.623Z,0.26
2023-02-26T21:14:05.302Z,0.22
2023-02-26T21:16:31.987Z,0.16
2023-02-26T21:19:00.329Z,0.19
2023-02-26T21:21:27.695Z,0.17
2023-02-26T21:23:54.361Z,0.25
2023-02-26T21:26:21.942Z,0.24
2023-02-26T21:28:48.730Z,0.32
2023-02-26T21:31:16.854Z,0.37
2023-02-26T21:33:44.234Z,0.38
2023-02-26T21:36:12.952Z,0.29
2023-02-26T21:38:39.790Z,0.28
2023-02-26T21:41:06.852Z,0.28
2023-02-26T21:43:33.485Z,0.35
2023-02-26T21:46:00.168Z,0.43
2023-02-26T21:48:26.824Z,0.33
2023-02-26T21:50:56.192Z,0.41
2023-02-26T21:53:23.113Z,0.35
2023-02-26T21:55:49.806Z,0.48
2023-02-26T21:58:16.543Z,0.61
2023-02-26T22:00:43.446Z,0.63
2023-02-26T22:03:11.340Z,0.44
2023-02-26T22:05:38.016Z,0.45
2023-02-26T22:08:04.831Z,0.24
2023-02-26T22:10:31.584Z,0.17
2023-02-26T22:12:58.219Z,0.07
2023-02-26T22:15:24.901Z,-0.01
2023-02-26T22:17:51.522Z,0.08
2023-02-26T22:20:18.344Z,0.10
2023-02-26T22:22:44.963Z,0.21
2023-02-26T22:25:12.869Z,0.21
2023-02-26T22:27:39.799Z,0.29
2023-02-26T22:30:08.010Z,0.34
2023-02-26T22:32:35.016Z,0.28
2023-02-26T22:35:01.793Z,0.30
2023-02-26T22:37:28.611Z,0.28
2023-02-26T22:39:55.504Z,0.22
2023-02-26T22:42:22.584Z,0.10
2023-02-26T22:44:49.262Z,0.11
2023-02-26T22:47:15.942Z,0.13
2023-02-26T22:49:42.579Z,0.13
2023-02-26T22:52:10.575Z,-0.02
2023-02-26T22:54:38.971Z,-0.06
2023-02-26T22:57:06.257Z,-0.17
2023-02-26T22:59:32.908Z,-0.12
2023-02-26T23:01:59.630Z,-0.02
2023-02-26T23:04:26.421Z,-0.20
2023-02-26T23:06:53.076Z,-0.16
2023-02-26T23:09:20.041Z,-0.24
2023-02-26T23:11:47.002Z,-0.37
2023-02-26T23:14:13.643Z,-0.42
2023-02-26T23:16:40.476Z,-0.38
2023-02-26T23:19:07.357Z,-0.30
2023-02-26T23:21:34.133Z,-0.30
2023-02-26T23:24:00.807Z,-0.18
2023-02-26T23:26:28.207Z,-0.12
2023-02-26T23:28:55.051Z,-0.19
2023-02-26T23:31:21.866Z,-0.20
2023-02-26T23:33:48.709Z,-0.18
2023-02-26T23:36:15.704Z,-0.16
2023-02-26T23:38:42.388Z,-0.01
2023-02-26T23:41:09.196Z,0.01
2023-02-26T23:43:35.894Z,-0.03
2023-02-26T23:46:02.660Z,0.02
2023-02-26T23:48:29.365Z,0.02
2023-02-26T23:50:55.996Z,0.01
2023-02-26T23:53:22.786Z,0.15
2023-02-26T23:55:52.449Z,0.14
2023-02-26T23:58:19.117Z,0.04
